createdAt,value
2023-04-04T00:00:11.591Z,102106.72
2023-04-04T00:02:39.944Z,102108.47
2023-04-04T00:05:09.714Z,102116.69
2023-04-04T00:07:37.995Z,102108.34
2023-04-04T00:10:06.600Z,102108.72
2023-04-04T00:12:37.164Z,102103.81
2023-04-04T00:15:06.229Z,102102.97
2023-04-04T00:17:34.491Z,102101.38
2023-04-04T00:20:04.264Z,102111.34
2023-04-04T00:22:32.809Z,102107.53
2023-04-04T00:25:01.432Z,102109.47
2023-04-04T00:27:29.643Z,102116.81
2023-04-04T00:29:59.269Z,102119.44
2023-04-04T00:32:27.672Z,102118.13
2023-04-04T00:34:57.195Z,102117.06
2023-04-04T00:37:25.464Z,102110.22
2023-04-04T00:39:53.781Z,102109.88
2023-04-04T00:42:22.385Z,102109.75
2023-04-04T00:44:52.429Z,102105.16
2023-04-04T00:47:23.192Z,102108.63
2023-04-04T00:49:52.402Z,102103.44
2023-04-04T00:52:20.709Z,102096.44
2023-04-04T00:54:49.095Z,102097.88
2023-04-04T00:57:17.625Z,102097.22
2023-04-04T00:59:45.975Z,102092.06
2023-04-04T01:02:14.270Z,102099.31
2023-04-04T01:04:43.850Z,102097.22
2023-04-04T01:07:12.173Z,102091.59
2023-04-04T01:10:04.046Z,102095.03
2023-04-04T01:12:32.499Z,102096.44
2023-04-04T01:15:01.011Z,102094.53
2023-04-04T01:17:29.903Z,102103.91
2023-04-04T01:20:01.755Z,102099.56
2023-04-04T01:22:31.285Z,102097.53
2023-04-04T01:25:00.097Z,102084.94
2023-04-04T01:27:29.649Z,102084.81
2023-04-04T01:29:57.943Z,102080.34
2023-04-04T01:32:28.889Z,102082.13
2023-04-04T01:34:59.457Z,102085.81
2023-04-04T01:37:31.868Z,102088.34
2023-04-04T01:40:05.183Z,102083.78
2023-04-04T01:42:35.673Z,102095.09
2023-04-04T01:45:04.072Z,102083.31
2023-04-04T01:47:38.841Z,102078.97
2023-04-04T01:50:07.843Z,102075.34
2023-04-04T01:52:36.388Z,102074.44
2023-04-04T01:55:05.160Z,102083.50
2023-04-04T01:57:34.688Z,102078.22
2023-04-04T02:00:03.188Z,102064.97
2023-04-04T02:02:31.622Z,102067.59
2023-04-04T02:04:59.871Z,102074.78
2023-04-04T02:07:28.451Z,102078.22
2023-04-04T02:09:56.754Z,102075.00
2023-04-04T02:12:24.932Z,102070.72
2023-04-04T02:14:54.693Z,102080.63
2023-04-04T02:17:23.039Z,102074.34
2023-04-04T02:19:51.217Z,102066.69
2023-04-04T02:22:19.449Z,102072.63
2023-04-04T02:24:47.730Z,102077.81
2023-04-04T02:27:16.185Z,102078.53
2023-04-04T02:29:44.472Z,102073.63
2023-04-04T02:32:14.384Z,102064.47
2023-04-04T02:34:42.676Z,102074.00
2023-04-04T02:37:11.064Z,102068.63
2023-04-04T02:39:39.465Z,102071.03
2023-04-04T02:42:07.719Z,102061.31
2023-04-04T02:44:35.979Z,102074.22
2023-04-04T02:47:04.225Z,102078.06
2023-04-04T02:49:33.793Z,102074.22
2023-04-04T02:52:02.231Z,102070.50
2023-04-04T02:54:30.695Z,102062.88
2023-04-04T02:56:58.910Z,102067.59
2023-04-04T02:59:27.323Z,102069.69
2023-04-04T03:01:55.704Z,102069.00
2023-04-04T03:04:24.279Z,102057.34
2023-04-04T03:06:54.115Z,102061.03
2023-04-04T03:09:22.397Z,102055.28
2023-04-04T03:11:51.488Z,102056.22
2023-04-04T03:14:19.777Z,102057.97
2023-04-04T03:16:49.839Z,102058.53
2023-04-04T03:19:18.170Z,102058.09
2023-04-04T03:21:46.429Z,102053.63
2023-04-04T03:24:16.068Z,102039.50
2023-04-04T03:26:44.324Z,102040.78
2023-04-04T03:29:12.788Z,102041.44
2023-04-04T03:31:41.432Z,102035.03
2023-04-04T03:34:09.722Z,102041.16
2023-04-04T03:36:38.066Z,102040.13
2023-04-04T03:39:06.632Z,102034.66
2023-04-04T03:41:56.257Z,102031.59
2023-04-04T03:44:24.560Z,102027.78
2023-04-04T03:46:52.901Z,102033.97
2023-04-04T03:49:21.189Z,102034.34
2023-04-04T03:51:50.008Z,102037.38
2023-04-04T03:54:18.936Z,102032.69
2023-04-04T03:56:48.090Z,102033.03
2023-04-04T03:59:17.731Z,102029.69
2023-04-04T04:01:46.526Z,102032.38
2023-04-04T04:04:14.786Z,102042.75
2023-04-04T04:06:43.943Z,102026.06
2023-04-04T04:09:12.308Z,102028.44
2023-04-04T04:11:40.528Z,102025.88
2023-04-04T04:14:08.937Z,102027.53
2023-04-04T04:16:41.578Z,102019.13
2023-04-04T04:19:10.104Z,102031.88
2023-04-04T04:21:38.338Z,102023.53
2023-04-04T04:24:07.004Z,102029.25
2023-04-04T04:26:35.586Z,102021.50
2023-04-04T04:29:03.884Z,102022.34
2023-04-04T04:31:32.335Z,102024.72
2023-04-04T04:34:03.926Z,102025.22
2023-04-04T04:36:32.536Z,102022.16
2023-04-04T04:39:01.005Z,102014.13
2023-04-04T04:41:29.872Z,102014.13
2023-04-04T04:43:58.172Z,102007.81
2023-04-04T04:46:26.481Z,102015.19
2023-04-04T04:48:55.035Z,102022.94
2023-04-04T04:51:25.174Z,102019.25
2023-04-04T04:53:53.498Z,102024.56
2023-04-04T04:56:21.674Z,102024.06
2023-04-04T04:58:51.098Z,102030.09
2023-04-04T05:01:19.466Z,102019.19
2023-04-04T05:03:47.736Z,102028.72
2023-04-04T05:06:16.242Z,102020.31
2023-04-04T05:08:45.942Z,102020.84
2023-04-04T05:11:14.213Z,102019.50
2023-04-04T05:13:42.605Z,102018.66
2023-04-04T05:16:11.360Z,102020.81
2023-04-04T05:18:39.666Z,102023.03
2023-04-04T05:21:20.796Z,102024.09
2023-04-04T05:23:50.517Z,102028.91
2023-04-04T05:26:19.125Z,102038.06
2023-04-04T05:28:47.880Z,102030.84
2023-04-04T05:31:16.369Z,102035.13
2023-04-04T05:33:45.422Z,102034.28
2023-04-04T05:36:13.808Z,102039.28
2023-04-04T05:38:42.312Z,102043.09
2023-04-04T05:41:12.185Z,102043.56
2023-04-04T05:43:40.824Z,102048.25
2023-04-04T05:46:09.199Z,102048.09
2023-04-04T05:48:37.530Z,102047.59
2023-04-04T05:51:06.023Z,102047.88
2023-04-04T05:53:34.803Z,102047.16
2023-04-04T05:56:03.450Z,102054.47
2023-04-04T05:58:33.171Z,102049.41
2023-04-04T06:01:01.582Z,102061.00
2023-04-04T06:03:29.962Z,102060.72
2023-04-04T06:05:58.537Z,102077.19
2023-04-04T06:08:26.994Z,102074.13
2023-04-04T06:10:55.990Z,102080.22
2023-04-04T06:13:24.841Z,102081.00
2023-04-04T06:15:54.401Z,102076.22
2023-04-04T06:18:22.810Z,102077.91
2023-04-04T06:20:51.441Z,102083.44
2023-04-04T06:23:19.638Z,102091.66
2023-04-04T06:25:48.377Z,102092.78
2023-04-04T06:28:18.082Z,102084.16
2023-04-04T06:30:47.854Z,102090.03
2023-04-04T06:33:17.450Z,102097.00
2023-04-04T06:35:45.848Z,102107.97
2023-04-04T06:38:14.315Z,102105.75
2023-04-04T06:40:42.500Z,102105.31
2023-04-04T06:43:11.354Z,102105.97
2023-04-04T06:45:39.826Z,102109.38
2023-04-04T06:48:08.137Z,102109.59
2023-04-04T06:50:38.689Z,102106.47
2023-04-04T06:53:07.660Z,102098.66
2023-04-04T06:55:36.114Z,102103.84
2023-04-04T06:58:04.356Z,102105.50
2023-04-04T07:00:32.834Z,102102.44
2023-04-04T07:03:01.475Z,102111.44
2023-04-04T07:05:29.977Z,102112.88
2023-04-04T07:07:59.516Z,102112.72
2023-04-04T07:10:47.884Z,102111.88
2023-04-04T07:13:16.720Z,102111.91
2023-04-04T07:15:49.374Z,102101.53
2023-04-04T07:18:17.733Z,102094.47
2023-04-04T07:20:47.565Z,102098.13
2023-04-04T07:23:17.199Z,102098.09
2023-04-04T07:25:46.068Z,102096.00
2023-04-04T07:28:14.285Z,102092.03
2023-04-04T07:30:42.810Z,102100.38
2023-04-04T07:33:11.472Z,102092.19
2023-04-04T07:35:39.904Z,102093.72
2023-04-04T07:38:08.237Z,102086.22
2023-04-04T07:40:38.180Z,102092.97
2023-04-04T07:43:06.800Z,102088.78
2023-04-04T07:45:35.168Z,102087.19
2023-04-04T07:48:03.770Z,102092.28
2023-04-04T07:50:32.098Z,102090.59
2023-04-04T07:53:00.347Z,102085.47
2023-04-04T07:55:29.024Z,102088.72
2023-04-04T07:57:59.466Z,102084.06
2023-04-04T08:00:27.778Z,102081.28
2023-04-04T08:02:58.912Z,102072.97
2023-04-04T08:05:28.014Z,102078.81
2023-04-04T08:07:56.407Z,102082.38
2023-04-04T08:10:24.692Z,102079.91
2023-04-04T08:12:53.179Z,102074.28
2023-04-04T08:15:22.694Z,102075.81
2023-04-04T08:17:51.104Z,102074.78
2023-04-04T08:20:19.474Z,102079.84
2023-04-04T08:22:48.286Z,102082.50
2023-04-04T08:25:16.893Z,102075.44
2023-04-04T08:27:45.577Z,102081.63
2023-04-04T08:30:14.564Z,102084.06
2023-04-04T08:32:45.926Z,102081.38
2023-04-04T08:35:14.475Z,102074.44
2023-04-04T08:37:44.882Z,102081.28
2023-04-04T08:40:13.477Z,102084.34
2023-04-04T08:42:43.227Z,102075.34
2023-04-04T08:45:12.137Z,102081.81
2023-04-04T08:47:41.226Z,102077.28
2023-04-04T08:50:11.607Z,102081.09
2023-04-04T08:52:41.627Z,102079.69
2023-04-04T08:55:10.245Z,102070.88
2023-04-04T08:57:39.008Z,102072.88
2023-04-04T09:00:08.331Z,102062.03
2023-04-04T09:02:40.790Z,102074.44
2023-04-04T09:05:13.468Z,102066.91
2023-04-04T09:07:41.994Z,102064.13
2023-04-04T09:10:11.586Z,102055.75
2023-04-04T09:12:41.164Z,102064.94
2023-04-04T09:15:10.633Z,102071.03
2023-04-04T09:17:38.854Z,102069.59
2023-04-04T09:20:22.299Z,102075.41
2023-04-04T09:22:52.221Z,102065.06
2023-04-04T09:25:20.442Z,102063.53
2023-04-04T09:27:54.275Z,102063.03
2023-04-04T09:30:22.571Z,102060.84
2023-04-04T09:32:50.886Z,102057.03
2023-04-04T09:35:21.693Z,102058.00
2023-04-04T09:37:52.132Z,102055.09
2023-04-04T09:40:23.929Z,102055.00
2023-04-04T09:42:54.778Z,102042.91
2023-04-04T09:45:31.742Z,102056.16
2023-04-04T09:48:01.107Z,102052.50
2023-04-04T09:50:30.360Z,102058.69
2023-04-04T09:53:00.143Z,102047.31
2023-04-04T09:55:36.571Z,102051.59
2023-04-04T09:58:13.507Z,102054.66
2023-04-04T10:00:44.902Z,102046.81
2023-04-04T10:03:14.507Z,102039.34
2023-04-04T10:05:42.878Z,102036.28
2023-04-04T10:08:22.569Z,102043.78
2023-04-04T10:11:06.669Z,102032.69
2023-04-04T10:13:41.108Z,102035.31
2023-04-04T10:16:11.657Z,102037.31
2023-04-04T10:18:40.465Z,102035.81
2023-04-04T10:21:19.916Z,102037.16
2023-04-04T10:23:49.584Z,102028.63
2023-04-04T10:26:19.120Z,102033.34
2023-04-04T10:28:47.707Z,102029.13
2023-04-04T10:31:18.162Z,102020.03
2023-04-04T10:33:49.389Z,102021.38
2023-04-04T10:36:22.316Z,102016.53
2023-04-04T10:38:56.297Z,102011.56
2023-04-04T10:41:26.372Z,102007.38
2023-04-04T10:43:57.485Z,102007.38
2023-04-04T10:46:30.930Z,102001.53
2023-04-04T10:49:01.192Z,102004.50
2023-04-04T10:51:32.629Z,101994.97
2023-04-04T10:54:02.396Z,101994.19
2023-04-04T10:56:32.126Z,101987.78
2023-04-04T10:59:13.447Z,101992.22
2023-04-04T11:01:48.435Z,101984.53
2023-04-04T11:04:20.362Z,101983.34
2023-04-04T11:07:08.717Z,101983.03
2023-04-04T11:09:54.839Z,101976.59
2023-04-04T11:12:28.166Z,101974.91
2023-04-04T11:14:58.101Z,101981.13
2023-04-04T11:17:46.346Z,101972.34
2023-04-04T11:20:16.773Z,101961.78
2023-04-04T11:22:45.630Z,101966.88
2023-04-04T11:25:32.940Z,101959.88
2023-04-04T11:28:06.802Z,101955.00
2023-04-04T11:30:44.970Z,101953.03
2023-04-04T11:33:15.091Z,101950.13
2023-04-04T11:35:47.163Z,101950.22
2023-04-04T11:38:16.314Z,101947.38
2023-04-04T11:40:53.726Z,101947.63
2023-04-04T11:43:24.781Z,101938.28
2023-04-04T11:45:55.742Z,101951.78
2023-04-04T11:48:24.961Z,101947.94
2023-04-04T11:50:53.952Z,101940.25
2023-04-04T11:53:22.347Z,101943.72
2023-04-04T11:55:51.566Z,101952.44
2023-04-04T11:58:20.462Z,101946.19
2023-04-04T12:00:50.779Z,101949.09
2023-04-04T12:03:19.190Z,101940.66
2023-04-04T12:05:47.779Z,101936.88
2023-04-04T12:08:18.028Z,101935.53
2023-04-04T12:10:46.671Z,101931.13
2023-04-04T12:13:14.843Z,101928.88
2023-04-04T12:15:43.974Z,101928.22
2023-04-04T12:18:21.637Z,101921.53
2023-04-04T12:20:50.204Z,101914.63
2023-04-04T12:23:18.472Z,101911.31
2023-04-04T12:25:49.923Z,101903.56
2023-04-04T12:28:18.332Z,101907.75
2023-04-04T12:30:47.199Z,101890.19
2023-04-04T12:33:17.290Z,101896.72
2023-04-04T12:35:52.118Z,101895.63
2023-04-04T12:38:20.779Z,101892.03
2023-04-04T12:40:52.379Z,101898.72
2023-04-04T12:43:21.444Z,101878.63
2023-04-04T12:45:51.307Z,101878.41
2023-04-04T12:48:22.749Z,101874.94
2023-04-04T12:50:52.736Z,101865.22
2023-04-04T12:53:28.911Z,101866.66
2023-04-04T12:56:04.480Z,101859.84
2023-04-04T12:58:35.915Z,101861.44
2023-04-04T13:01:06.978Z,101858.00
2023-04-04T13:03:37.891Z,101854.78
2023-04-04T13:06:12.487Z,101848.09
2023-04-04T13:08:49.901Z,101842.81
2023-04-04T13:11:18.783Z,101845.84
2023-04-04T13:16:31.086Z,101835.06
2023-04-04T13:19:03.951Z,101844.91
2023-04-04T13:21:32.506Z,101833.66
2023-04-04T13:24:02.890Z,101817.44
2023-04-04T13:26:31.170Z,101817.03
2023-04-04T13:28:59.802Z,101826.19
2023-04-04T13:31:28.870Z,101820.94
2023-04-04T13:33:57.586Z,101817.53
2023-04-04T13:36:28.405Z,101817.78
2023-04-04T13:38:57.078Z,101816.81
2023-04-04T13:41:25.354Z,101815.16
2023-04-04T13:43:53.922Z,101801.72
2023-04-04T13:46:22.227Z,101801.09
2023-04-04T13:48:50.594Z,101801.34
2023-04-04T13:51:19.148Z,101800.53
2023-04-04T13:53:49.179Z,101794.81
2023-04-04T13:56:19.054Z,101790.34
2023-04-04T13:58:47.978Z,101788.09
2023-04-04T14:01:16.743Z,101782.13
2023-04-04T14:03:45.168Z,101785.66
2023-04-04T14:06:13.386Z,101774.81
2023-04-04T14:08:41.655Z,101774.41
2023-04-04T14:11:11.586Z,101768.34
2023-04-04T14:13:39.817Z,101781.63
2023-04-04T14:16:09.359Z,101767.03
2023-04-04T14:18:37.642Z,101766.50
2023-04-04T14:21:06.261Z,101758.00
2023-04-04T14:23:34.493Z,101768.00
2023-04-04T14:26:04.140Z,101759.50
2023-04-04T14:28:33.939Z,101763.97
2023-04-04T14:31:02.199Z,101762.63
2023-04-04T14:33:30.916Z,101754.34
2023-04-04T14:35:59.320Z,101740.69
2023-04-04T14:38:27.618Z,101745.84
2023-04-04T14:40:56.454Z,101746.25
2023-04-04T14:43:24.670Z,101745.91
2023-04-04T14:45:54.249Z,101744.94
2023-04-04T14:48:22.504Z,101738.53
2023-04-04T14:50:51.159Z,101744.09
2023-04-04T14:53:19.718Z,101744.31
2023-04-04T14:55:48.322Z,101734.53
2023-04-04T14:58:16.556Z,101735.69
2023-04-04T15:00:45.980Z,101738.78
2023-04-04T15:03:15.926Z,101741.25
2023-04-04T15:05:44.436Z,101734.53
2023-04-04T15:08:12.668Z,101730.97
2023-04-04T15:10:41.523Z,101730.94
2023-04-04T15:13:10.053Z,101727.13
2023-04-04T15:15:38.796Z,101716.16
2023-04-04T15:18:07.473Z,101722.13
2023-04-04T15:20:40.025Z,101711.75
2023-04-04T15:23:09.135Z,101718.63
2023-04-04T15:25:37.620Z,101714.28
2023-04-04T15:28:05.874Z,101711.09
2023-04-04T15:30:34.268Z,101713.09
2023-04-04T15:33:02.817Z,101711.78
2023-04-04T15:35:31.419Z,101700.97
2023-04-04T15:38:01.206Z,101698.22
2023-04-04T15:40:29.517Z,101702.84
2023-04-04T15:42:58.462Z,101698.25
2023-04-04T15:45:27.277Z,101693.50
2023-04-04T15:47:56.084Z,101699.22
2023-04-04T15:50:26.736Z,101692.81
2023-04-04T15:52:55.088Z,101698.88
2023-04-04T15:55:24.838Z,101700.13
2023-04-04T15:57:53.206Z,101693.31
2023-04-04T16:00:21.821Z,101694.16
2023-04-04T16:02:50.850Z,101684.56
2023-04-04T16:05:19.334Z,101689.13
2023-04-04T16:07:47.573Z,101682.38
2023-04-04T16:10:16.196Z,101687.84
2023-04-04T16:12:45.762Z,101680.50
2023-04-04T16:15:14.389Z,101683.84
2023-04-04T16:17:42.632Z,101691.63
2023-04-04T16:20:11.914Z,101683.38
2023-04-04T16:22:40.350Z,101681.81
2023-04-04T16:25:09.503Z,101685.53
2023-04-04T16:27:39.150Z,101670.88
2023-04-04T16:30:12.590Z,101679.06
2023-04-04T16:32:41.729Z,101668.16
2023-04-04T16:35:10.310Z,101679.97
2023-04-04T16:37:38.517Z,101663.63
2023-04-04T16:40:07.687Z,101661.84
2023-04-04T16:42:36.422Z,101664.56
2023-04-04T16:45:08.083Z,101662.91
2023-04-04T16:47:37.971Z,101654.75
2023-04-04T16:50:07.138Z,101660.84
2023-04-04T16:52:35.777Z,101648.91
2023-04-04T16:55:04.436Z,101656.94
2023-04-04T16:57:32.937Z,101645.44
2023-04-04T17:00:01.700Z,101647.13
2023-04-04T17:02:30.070Z,101648.19
2023-04-04T17:04:59.666Z,101653.91
2023-04-04T17:07:28.086Z,101645.03
2023-04-04T17:09:57.151Z,101642.50
2023-04-04T17:12:25.367Z,101643.50
2023-04-04T17:14:53.619Z,101646.22
2023-04-04T17:17:21.882Z,101647.22
2023-04-04T17:19:50.256Z,101653.75
2023-04-04T17:22:34.124Z,101648.38
2023-04-04T17:25:03.484Z,101648.50
2023-04-04T17:27:31.742Z,101648.31
2023-04-04T17:30:01.686Z,101643.81
2023-04-04T17:32:30.300Z,101642.78
2023-04-04T17:34:58.558Z,101640.53
2023-04-04T17:37:29.098Z,101645.16
2023-04-04T17:39:57.987Z,101644.09
2023-04-04T17:42:26.253Z,101636.44
2023-04-04T17:44:54.658Z,101647.19
2023-04-04T17:47:22.864Z,101640.09
2023-04-04T17:49:51.989Z,101641.91
2023-04-04T17:52:20.430Z,101638.94
2023-04-04T17:54:52.298Z,101640.59
2023-04-04T17:57:21.546Z,101632.34
2023-04-04T17:59:49.780Z,101640.59
2023-04-04T18:02:18.724Z,101639.53
2023-04-04T18:04:47.856Z,101634.91
2023-04-04T18:07:16.890Z,101641.50
2023-04-04T18:09:45.608Z,101639.47
2023-04-04T18:12:15.843Z,101634.81
2023-04-04T18:14:44.156Z,101638.69
2023-04-04T18:17:12.660Z,101638.97
2023-04-04T18:19:41.405Z,101638.06
2023-04-04T18:22:10.128Z,101633.06
2023-04-04T18:24:38.422Z,101633.19
2023-04-04T18:27:07.343Z,101635.84
2023-04-04T18:29:36.916Z,101639.41
2023-04-04T18:32:05.217Z,101646.50
2023-04-04T18:34:33.546Z,101643.41
2023-04-04T18:37:02.123Z,101641.66
2023-04-04T18:39:30.635Z,101638.88
2023-04-04T18:41:58.880Z,101639.84
2023-04-04T18:44:27.390Z,101639.03
2023-04-04T18:46:58.704Z,101637.16
2023-04-04T18:49:27.205Z,101635.03
2023-04-04T18:51:55.469Z,101642.34
2023-04-04T18:54:23.795Z,101644.00
2023-04-04T18:56:52.250Z,101641.88
2023-04-04T18:59:22.444Z,101643.78
2023-04-04T19:01:52.585Z,101643.66
2023-04-04T19:04:22.594Z,101649.31
2023-04-04T19:06:51.371Z,101642.25
2023-04-04T19:09:22.949Z,101653.34
2023-04-04T19:11:53.617Z,101651.91
2023-04-04T19:14:22.295Z,101654.84
2023-04-04T19:16:52.342Z,101658.03
2023-04-04T19:19:22.758Z,101655.78
2023-04-04T19:21:51.101Z,101668.53
2023-04-04T19:24:19.385Z,101671.59
2023-04-04T19:26:47.921Z,101667.09
2023-04-04T19:29:19.077Z,101675.38
2023-04-04T19:31:48.467Z,101672.19
2023-04-04T19:34:17.376Z,101671.59
2023-04-04T19:36:47.062Z,101672.31
2023-04-04T19:39:19.405Z,101667.25
2023-04-04T19:41:48.131Z,101665.94
2023-04-04T19:44:21.220Z,101664.53
2023-04-04T19:46:50.176Z,101661.94
2023-04-04T19:49:19.187Z,101657.69
2023-04-04T19:51:53.068Z,101666.63
2023-04-04T19:54:25.056Z,101653.56
2023-04-04T19:56:56.669Z,101656.50
2023-04-04T19:59:43.864Z,101655.22
2023-04-04T20:02:36.355Z,101658.63
2023-04-04T20:05:24.954Z,101650.72
2023-04-04T20:07:55.199Z,101666.63
2023-04-04T20:10:36.586Z,101653.78
2023-04-04T20:13:06.393Z,101657.91
2023-04-04T20:15:55.184Z,101659.09
2023-04-04T20:18:24.863Z,101658.63
2023-04-04T20:20:58.696Z,101654.97
2023-04-04T20:23:28.894Z,101654.84
2023-04-04T20:26:01.753Z,101656.84
2023-04-04T20:28:30.303Z,101654.47
2023-04-04T20:31:01.748Z,101649.63
2023-04-04T20:33:32.084Z,101653.84
2023-04-04T20:36:07.196Z,101645.25
2023-04-04T20:38:38.555Z,101641.59
2023-04-04T20:41:11.394Z,101639.00
2023-04-04T20:43:40.053Z,101641.13
2023-04-04T20:46:09.399Z,101641.16
2023-04-04T20:48:38.645Z,101649.53
2023-04-04T20:51:23.641Z,101650.72
2023-04-04T20:53:56.209Z,101646.72
2023-04-04T20:56:45.857Z,101650.94
2023-04-04T20:59:34.528Z,101649.75
2023-04-04T21:02:10.820Z,101645.72
2023-04-04T21:04:40.843Z,101648.53
2023-04-04T21:07:09.207Z,101647.91
2023-04-04T21:09:57.121Z,101633.03
2023-04-04T21:12:28.447Z,101635.44
2023-04-04T21:15:20.802Z,101647.31
2023-04-04T21:17:49.524Z,101645.38
2023-04-04T21:20:38.068Z,101646.34
2023-04-04T21:23:07.285Z,101642.31
2023-04-04T21:25:45.077Z,101637.16
2023-04-04T21:28:13.592Z,101643.19
2023-04-04T21:30:43.574Z,101650.31
2023-04-04T21:33:16.950Z,101642.97
2023-04-04T21:35:46.638Z,101646.56
2023-04-04T21:38:24.489Z,101642.97
2023-04-04T21:40:54.242Z,101645.78
2023-04-04T21:43:25.187Z,101629.34
2023-04-04T21:45:55.017Z,101623.47
2023-04-04T21:48:23.392Z,101631.44
2023-04-04T21:50:51.738Z,101633.47
2023-04-04T21:53:21.885Z,101629.50
2023-04-04T21:55:50.139Z,101632.13
2023-04-04T21:58:19.924Z,101628.53
2023-04-04T22:00:48.857Z,101630.94
2023-04-04T22:03:17.643Z,101628.81
2023-04-04T22:05:46.294Z,101633.47
2023-04-04T22:08:14.715Z,101623.13
2023-04-04T22:10:50.038Z,101627.63
2023-04-04T22:13:22.339Z,101615.22
2023-04-04T22:15:50.879Z,101623.47
2023-04-04T22:18:30.455Z,101622.00
2023-04-04T22:21:02.935Z,101617.09
2023-04-04T22:23:35.218Z,101610.09
2023-04-04T22:26:05.201Z,101615.38
2023-04-04T22:28:35.840Z,101610.63
2023-04-04T22:31:05.442Z,101606.41
2023-04-04T22:33:34.045Z,101613.38
2023-04-04T22:36:02.855Z,101602.63
2023-04-04T22:38:31.296Z,101600.69
2023-04-04T22:40:59.592Z,101611.06
2023-04-04T22:43:28.705Z,101608.78
2023-04-04T22:45:58.518Z,101607.56
2023-04-04T22:48:26.968Z,101606.38
2023-04-04T22:50:58.759Z,101599.09
2023-04-04T22:53:27.157Z,101603.66
2023-04-04T22:55:59.796Z,101608.69
2023-04-04T22:58:28.131Z,101607.47
2023-04-04T23:00:57.772Z,101605.31
2023-04-04T23:03:26.356Z,101610.72
2023-04-04T23:05:54.555Z,101608.19
2023-04-04T23:08:23.338Z,101607.13
2023-04-04T23:10:51.995Z,101603.78
2023-04-04T23:13:20.815Z,101602.34
2023-04-04T23:15:49.168Z,101597.38
2023-04-04T23:18:19.130Z,101600.25
2023-04-04T23:20:47.451Z,101600.25
2023-04-04T23:23:15.865Z,101596.06
2023-04-04T23:25:44.755Z,101592.47
2023-04-04T23:28:13.129Z,101596.78
2023-04-04T23:30:41.643Z,101592.59
2023-04-04T23:33:10.196Z,101580.91
2023-04-04T23:35:40.155Z,101580.91
2023-04-04T23:38:13.232Z,101580.47
2023-04-04T23:40:41.915Z,101585.03
2023-04-04T23:43:10.754Z,101576.72
2023-04-04T23:45:40.830Z,101581.28
2023-04-04T23:48:09.088Z,101577.91
2023-04-04T23:50:38.039Z,101574.59
2023-04-04T23:53:07.829Z,101576.38
2023-04-04T23:55:36.370Z,101569.88
2023-04-04T23:58:04.651Z,101574.06
